Time;durP1;ratioP1;P1;durP2;ratioP2;P2;SDS_P1;SDS_P2;PMS_P1;PMS_P2;Temp;Humidity;BMP_temperature;BMP_pressure;BME280_temperature;BME280_humidity;BME280_pressure;Samples;Min_cycle;Max_cycle;Signal;HPM_P1;HPM_P2
2022/08/04 00:01:21;;;;;;;13.30;5.25;;;;;;;;;;5014680;28;20473;-70
2022/08/04 00:03:55;;;;;;;15.55;5.43;;;;;;;;;;4995402;28;20106;-70
2022/08/04 00:06:30;;;;;;;17.95;5.57;;;;;;;;;;5006028;28;20069;-70
2022/08/04 00:08:59;;;;;;;17.63;5.65;;;;;;;;;;5008965;28;20504;-71
2022/08/04 00:11:29;;;;;;;16.05;5.90;;;;;;;;;;5027360;28;20137;-70
2022/08/04 00:14:03;;;;;;;21.73;6.00;;;;;;;;;;5024716;28;20363;-69
2022/08/04 00:16:36;;;;;;;17.33;5.68;;;;;;;;;;5019238;28;20115;-70
2022/08/04 00:19:04;;;;;;;15.85;6.00;;;;;;;;;;5009785;28;20088;-72
2022/08/04 00:21:35;;;;;;;21.50;6.00;;;;;;;;;;5026597;28;20081;-70
2022/08/04 00:24:01;;;;;;;16.10;6.15;;;;;;;;;;5023856;28;20121;-71
2022/08/04 00:26:28;;;;;;;23.65;6.00;;;;;;;;;;5024595;28;20100;-70
2022/08/04 00:28:53;;;;;;;;;;;;;;;;;;5006583;28;20085;-70
2022/08/04 00:31:21;;;;;;;19.58;6.78;;;;;;;;;;5027457;28;19967;-70
2022/08/04 00:33:48;;;;;;;16.65;6.30;;;;;;;;;;5023688;28;20479;-69
2022/08/04 00:36:14;;;;;;;21.88;6.43;;;;;;;;;;5025778;28;20476;-71
2022/08/04 00:38:42;;;;;;;18.63;5.95;;;;;;;;;;5025983;28;20050;-71
2022/08/04 00:41:16;;;;;;;17.65;6.65;;;;;;;;;;5016985;28;20476;-70
2022/08/04 00:43:49;;;;;;;20.25;6.63;;;;;;;;;;5008346;28;20354;-71
2022/08/04 00:46:33;;;;;;;21.25;6.75;;;;;;;;;;5008085;28;20041;-71
2022/08/04 00:49:08;;;;;;;25.00;7.55;;;;;;;;;;5008608;28;20050;-70
2022/08/04 00:51:37;;;;;;;21.40;6.95;;;;;;;;;;5019012;28;20169;-70
2022/08/04 00:54:22;;;;;;;19.70;6.85;;;;;;;;;;5010160;28;20046;-71
2022/08/04 00:57:09;;;;;;;16.02;6.78;;;;;;;;;;5026673;28;20350;-71
2022/08/04 00:59:46;;;;;;;20.42;7.55;;;;;;;;;;5027327;28;20049;-71
2022/08/04 01:02:25;;;;;;;16.83;7.10;;;;;;;;;;5024584;28;20060;-70
2022/08/04 01:04:51;;;;;;;19.40;7.22;;;;;;;;;;5025702;28;20529;-70
2022/08/04 01:07:17;;;;;;;;;;;;;;;;;;5023533;28;20088;-70
2022/08/04 01:09:43;;;;;;;21.17;7.57;;;;;;;;;;5025052;28;19921;-71
2022/08/04 01:12:15;;;;;;;21.13;7.40;;;;;;;;;;5022696;28;20382;-74
2022/08/04 01:15:02;;;;;;;20.70;7.68;;;;;;;;;;5028011;28;20194;-72
2022/08/04 01:17:51;;;;;;;18.17;6.88;;;;;;;;;;5022900;28;20128;-72
2022/08/04 01:20:21;;;;;;;21.55;7.75;;;;;;;;;;5012703;28;20065;-71
2022/08/04 01:23:03;;;;;;;18.33;7.10;;;;;;;;;;5026174;28;20057;-71
2022/08/04 01:25:39;;;;;;;21.05;6.85;;;;;;;;;;5025618;28;20049;-71
2022/08/04 01:28:05;;;;;;;19.02;7.18;;;;;;;;;;5025858;28;20080;-71
2022/08/04 01:30:32;;;;;;;;;;;;;;;;;;5026312;28;20902;-72
2022/08/04 01:33:08;;;;;;;22.25;7.47;;;;;;;;;;4992958;28;20264;-71
2022/08/04 01:35:37;;;;;;;18.83;7.65;;;;;;;;;;5026781;28;20541;-70
2022/08/04 01:38:03;;;;;;;18.33;7.25;;;;;;;;;;5027870;28;20056;-71
2022/08/04 01:40:29;;;;;;;;;;;;;;;;;;5006997;28;20038;-71
2022/08/04 01:42:58;;;;;;;24.23;7.43;;;;;;;;;;5025304;28;19921;-71
2022/08/04 01:45:24;;;;;;;19.27;7.43;;;;;;;;;;5026268;28;20175;-71
2022/08/04 01:48:02;;;;;;;24.02;8.05;;;;;;;;;;5027238;28;20438;-70
2022/08/04 01:50:32;;;;;;;20.95;7.13;;;;;;;;;;5023403;28;20077;-71
2022/08/04 01:53:00;;;;;;;16.20;7.47;;;;;;;;;;5024631;28;20061;-70
2022/08/04 01:55:28;;;;;;;16.95;7.60;;;;;;;;;;5026321;28;20057;-71
2022/08/04 01:57:58;;;;;;;20.13;7.80;;;;;;;;;;5024932;28;20120;-70
2022/08/04 02:00:26;;;;;;;19.17;7.78;;;;;;;;;;5022901;28;20354;-71
2022/08/04 02:02:52;;;;;;;17.35;7.43;;;;;;;;;;5023668;28;20572;-68
2022/08/04 02:05:20;;;;;;;21.90;7.80;;;;;;;;;;5026414;28;20050;-68
2022/08/04 02:07:59;;;;;;;21.60;8.63;;;;;;;;;;5026093;28;20140;-69
2022/08/04 02:10:29;;;;;;;18.83;7.55;;;;;;;;;;5016268;28;20121;-70
2022/08/04 02:13:10;;;;;;;21.45;7.70;;;;;;;;;;5024198;28;20041;-68
2022/08/04 02:15:39;;;;;;;22.77;8.57;;;;;;;;;;5024366;28;20092;-70
2022/08/04 02:18:12;;;;;;;21.17;8.00;;;;;;;;;;5028052;28;20216;-70
2022/08/04 02:20:39;;;;;;;19.27;7.93;;;;;;;;;;5024866;28;20488;-70
2022/08/04 02:23:10;;;;;;;20.80;7.70;;;;;;;;;;5003032;28;21651;-69
2022/08/04 02:25:40;;;;;;;23.00;8.27;;;;;;;;;;5026257;28;20156;-68
2022/08/04 02:28:21;;;;;;;25.00;8.95;;;;;;;;;;5025859;28;20137;-69
2022/08/04 02:30:57;;;;;;;26.38;8.35;;;;;;;;;;5020565;28;20129;-70
2022/08/04 02:33:26;;;;;;;27.67;8.50;;;;;;;;;;5020132;28;20152;-70
2022/08/04 02:35:55;;;;;;;22.60;8.82;;;;;;;;;;5026845;28;20744;-70
2022/08/04 02:38:30;;;;;;;25.15;9.20;;;;;;;;;;5025640;28;20045;-71
2022/08/04 02:40:58;;;;;;;20.42;8.45;;;;;;;;;;5020276;28;20064;-71
2022/08/04 02:43:25;;;;;;;20.85;8.35;;;;;;;;;;5008186;28;20104;-69
2022/08/04 02:45:55;;;;;;;21.30;8.20;;;;;;;;;;5008581;28;20053;-70
2022/08/04 02:48:24;;;;;;;24.02;8.68;;;;;;;;;;5007437;28;20124;-71
2022/08/04 02:50:50;;;;;;;24.45;8.93;;;;;;;;;;5023964;28;20093;-69
2022/08/04 02:53:18;;;;;;;19.75;8.00;;;;;;;;;;5029092;28;20057;-69
2022/08/04 02:55:44;;;;;;;20.23;8.35;;;;;;;;;;5026745;28;20128;-69
2022/08/04 02:58:11;;;;;;;20.13;8.73;;;;;;;;;;5029335;28;20096;-70
2022/08/04 03:00:38;;;;;;;21.60;7.78;;;;;;;;;;5027784;28;20107;-69
2022/08/04 03:03:07;;;;;;;21.95;8.20;;;;;;;;;;5023860;28;20433;-70
2022/08/04 03:05:52;;;;;;;25.20;8.52;;;;;;;;;;5029509;28;20068;-69
2022/08/04 03:08:23;;;;;;;23.38;7.68;;;;;;;;;;5029805;28;20099;-69
2022/08/04 03:10:49;;;;;;;24.13;8.43;;;;;;;;;;5027432;28;20080;-70
2022/08/04 03:13:15;;;;;;;;;;;;;;;;;;5027332;28;20045;-71
2022/08/04 03:15:41;;;;;;;22.40;7.85;;;;;;;;;;5028235;28;19921;-70
2022/08/04 03:18:07;;;;;;;;;;;;;;;;;;5030679;28;20037;-69
2022/08/04 03:20:44;;;;;;;24.17;8.27;;;;;;;;;;5023005;28;20313;-69
2022/08/04 03:23:34;;;;;;;22.40;7.88;;;;;;;;;;5026358;28;20073;-69
2022/08/04 03:26:18;;;;;;;19.98;8.00;;;;;;;;;;4999410;28;20049;-69
2022/08/04 03:29:03;;;;;;;25.13;7.65;;;;;;;;;;5028965;28;20118;-69
2022/08/04 03:31:40;;;;;;;23.27;7.95;;;;;;;;;;5009667;28;20192;-70
2022/08/04 03:34:09;;;;;;;19.25;7.53;;;;;;;;;;5024132;28;20511;-70
2022/08/04 03:36:35;;;;;;;21.95;7.63;;;;;;;;;;5027484;28;20074;-69
2022/08/04 03:39:01;;;;;;;;;;;;;;;;;;5022821;28;20067;-69
2022/08/04 03:41:36;;;;;;;22.63;7.72;;;;;;;;;;5029148;28;20007;-71
2022/08/04 03:44:11;;;;;;;26.45;7.82;;;;;;;;;;5015802;28;20041;-69
2022/08/04 03:46:37;;;;;;;18.73;7.63;;;;;;;;;;5026460;28;20457;-69
2022/08/04 03:49:03;;;;;;;;;;;;;;;;;;5029337;28;20102;-69
2022/08/04 03:54:38;;;;;;;20.27;8.10;;;;;;;;;;4996723;28;20084;-70
2022/08/04 03:57:19;;;;;;;22.08;7.32;;;;;;;;;;5027325;28;20081;-69
2022/08/04 04:00:02;;;;;;;25.40;7.45;;;;;;;;;;5026404;28;20045;-71
2022/08/04 04:02:28;;;;;;;28.52;8.55;;;;;;;;;;5010927;28;20065;-69
2022/08/04 04:04:54;;;;;;;;;;;;;;;;;;5017710;28;20060;-68
2022/08/04 04:07:39;;;;;;;18.48;7.60;;;;;;;;;;5025232;28;19925;-69
2022/08/04 04:10:11;;;;;;;20.88;8.35;;;;;;;;;;5024683;28;20370;-68
2022/08/04 04:12:56;;;;;;;24.17;8.13;;;;;;;;;;5026869;28;20049;-69
2022/08/04 04:15:40;;;;;;;24.35;8.35;;;;;;;;;;5024259;28;20052;-69
2022/08/04 04:18:37;;;;;;;23.33;8.02;;;;;;;;;;5028991;28;20152;-69
2022/08/04 04:21:41;;;;;;;22.83;9.25;;;;;;;;;;5020431;28;20103;-69
2022/08/04 04:24:07;;;;;;;23.35;7.82;;;;;;;;;;5026891;28;20056;-69
2022/08/04 04:26:46;;;;;;;21.70;7.55;;;;;;;;;;5024839;28;20127;-71
2022/08/04 04:29:15;;;;;;;21.25;7.70;;;;;;;;;;5009213;28;20174;-69
2022/08/04 04:31:41;;;;;;;23.27;8.57;;;;;;;;;;5019729;28;20099;-69
2022/08/04 04:34:07;;;;;;;;;;;;;;;;;;5006834;28;20041;-69
2022/08/04 04:36:43;;;;;;;20.92;8.40;;;;;;;;;;5018830;28;19948;-69
2022/08/04 04:39:28;;;;;;;19.52;9.75;;;;;;;;;;5008661;28;20188;-69
2022/08/04 04:41:54;;;;;;;23.63;8.75;;;;;;;;;;4995974;28;20741;-69
2022/08/04 04:44:20;;;;;;;;;;;;;;;;;;5025934;28;20076;-69
2022/08/04 04:46:46;;;;;;;20.23;8.70;;;;;;;;;;5024375;28;20356;-69
2022/08/04 04:49:33;;;;;;;24.63;8.85;;;;;;;;;;5005818;28;20060;-69
2022/08/04 04:52:00;;;;;;;;;;;;;;;;;;5025097;28;20053;-69
2022/08/04 04:54:30;;;;;;;19.70;9.13;;;;;;;;;;5026302;28;20028;-69
2022/08/04 04:57:03;;;;;;;22.33;8.57;;;;;;;;;;5025517;28;20049;-69
2022/08/04 04:59:32;;;;;;;21.77;8.82;;;;;;;;;;5026506;28;20111;-69
2022/08/04 05:02:17;;;;;;;22.05;8.45;;;;;;;;;;5003439;28;20109;-69
2022/08/04 05:04:43;;;;;;;22.50;9.50;;;;;;;;;;5019222;28;20139;-69
2022/08/04 05:07:09;;;;;;;;;;;;;;;;;;5027071;28;20136;-69
2022/08/04 05:09:41;;;;;;;21.35;9.32;;;;;;;;;;5026284;28;20356;-68
2022/08/04 05:12:32;;;;;;;23.00;9.02;;;;;;;;;;5021381;28;20144;-69
2022/08/04 05:14:59;;;;;;;23.17;8.80;;;;;;;;;;5011717;28;20531;-70
2022/08/04 05:17:29;;;;;;;21.73;7.53;;;;;;;;;;5023701;28;20092;-69
2022/08/04 05:20:01;;;;;;;18.73;8.70;;;;;;;;;;5023331;28;20137;-68
2022/08/04 05:22:32;;;;;;;22.20;8.82;;;;;;;;;;5024670;28;20175;-69
2022/08/04 05:25:02;;;;;;;20.15;8.48;;;;;;;;;;5011197;28;20109;-68
2022/08/04 05:27:32;;;;;;;19.10;8.02;;;;;;;;;;5007432;28;20052;-69
2022/08/04 05:30:01;;;;;;;16.98;8.15;;;;;;;;;;5025109;28;20059;-68
2022/08/04 05:32:30;;;;;;;20.33;8.52;;;;;;;;;;5025544;28;20069;-69
2022/08/04 05:35:04;;;;;;;22.55;7.80;;;;;;;;;;5022701;28;20037;-69
2022/08/04 05:37:31;;;;;;;21.02;8.95;;;;;;;;;;5007266;28;20057;-69
2022/08/04 05:40:03;;;;;;;25.70;8.05;;;;;;;;;;4999332;28;20061;-69
2022/08/04 05:42:31;;;;;;;23.50;9.68;;;;;;;;;;5024516;28;20089;-69
2022/08/04 05:44:58;;;;;;;19.67;8.02;;;;;;;;;;5024866;28;20446;-69
2022/08/04 05:47:25;;;;;;;21.35;8.93;;;;;;;;;;5003887;28;20050;-68
2022/08/04 05:49:51;;;;;;;26.25;8.90;;;;;;;;;;5023369;28;20108;-69
2022/08/04 05:52:18;;;;;;;21.63;8.63;;;;;;;;;;4997557;28;20458;-68
2022/08/04 05:54:45;;;;;;;18.90;8.20;;;;;;;;;;5023197;28;20050;-70
2022/08/04 05:57:11;;;;;;;19.98;7.97;;;;;;;;;;5021028;28;20095;-70
2022/08/04 05:59:39;;;;;;;21.20;7.90;;;;;;;;;;5020496;28;20114;-69
2022/08/04 06:02:07;;;;;;;18.85;7.78;;;;;;;;;;5020831;28;20045;-69
2022/08/04 06:04:38;;;;;;;19.77;7.95;;;;;;;;;;5015165;28;20045;-69
2022/08/04 06:07:04;;;;;;;20.70;7.70;;;;;;;;;;5014839;28;20124;-69
2022/08/04 06:09:31;;;;;;;21.95;8.48;;;;;;;;;;5025052;28;20045;-68
2022/08/04 06:12:02;;;;;;;22.85;8.45;;;;;;;;;;5003970;28;20191;-72
2022/08/04 06:14:31;;;;;;;23.60;7.95;;;;;;;;;;4996116;28;20358;-71
2022/08/04 06:16:58;;;;;;;19.42;7.85;;;;;;;;;;5023481;28;20147;-73
2022/08/04 06:19:26;;;;;;;17.85;7.22;;;;;;;;;;5003161;28;20196;-74
2022/08/04 06:21:53;;;;;;;19.15;7.32;;;;;;;;;;5019880;28;20505;-71
2022/08/04 06:24:21;;;;;;;18.70;7.18;;;;;;;;;;5022636;28;20049;-71
2022/08/04 06:26:48;;;;;;;22.20;7.90;;;;;;;;;;5028265;28;20121;-74
2022/08/04 06:29:23;;;;;;;19.30;7.40;;;;;;;;;;5026912;28;20052;-71
2022/08/04 06:32:01;;;;;;;17.23;7.45;;;;;;;;;;5028205;28;20076;-73
2022/08/04 06:34:28;;;;;;;23.33;7.65;;;;;;;;;;5028714;28;20460;-72
2022/08/04 06:36:54;;;;;;;17.42;6.97;;;;;;;;;;5029772;28;20045;-71
2022/08/04 06:39:22;;;;;;;24.10;7.25;;;;;;;;;;5023967;28;20064;-70
2022/08/04 06:41:50;;;;;;;15.70;6.75;;;;;;;;;;5010918;28;20046;-71
2022/08/04 06:44:16;;;;;;;16.95;6.47;;;;;;;;;;5017147;28;20148;-70
2022/08/04 06:46:43;;;;;;;17.25;6.45;;;;;;;;;;5018891;28;20373;-68
2022/08/04 06:49:10;;;;;;;19.13;7.15;;;;;;;;;;5023745;28;20147;-69
2022/08/04 06:51:36;;;;;;;14.18;6.20;;;;;;;;;;5002700;28;21927;-69
2022/08/04 06:54:03;;;;;;;21.92;6.75;;;;;;;;;;5027996;28;20067;-69
2022/08/04 06:56:29;;;;;;;19.38;6.20;;;;;;;;;;5006572;28;20124;-69
2022/08/04 06:58:59;;;;;;;16.30;6.40;;;;;;;;;;5022101;28;20045;-69
2022/08/04 07:01:26;;;;;;;20.85;6.40;;;;;;;;;;5003359;28;20060;-69
2022/08/04 07:03:52;;;;;;;16.08;6.20;;;;;;;;;;5020473;28;20052;-68
2022/08/04 07:06:20;;;;;;;20.75;6.28;;;;;;;;;;5002001;28;20068;-68
2022/08/04 07:08:46;;;;;;;20.23;6.15;;;;;;;;;;5014613;28;20033;-69
2022/08/04 07:11:13;;;;;;;16.33;5.68;;;;;;;;;;5012565;28;20080;-70
2022/08/04 07:13:40;;;;;;;18.92;5.72;;;;;;;;;;5023565;28;20208;-69
2022/08/04 07:16:07;;;;;;;20.45;6.47;;;;;;;;;;5015601;28;20465;-69
2022/08/04 07:18:33;;;;;;;17.85;5.95;;;;;;;;;;5017650;28;20398;-70
2022/08/04 07:20:59;;;;;;;21.95;5.93;;;;;;;;;;5015472;28;20115;-69
2022/08/04 07:23:26;;;;;;;17.75;5.68;;;;;;;;;;5011380;28;20095;-69
2022/08/04 07:25:53;;;;;;;19.13;5.85;;;;;;;;;;5011587;28;20075;-69
2022/08/04 07:28:20;;;;;;;15.93;5.50;;;;;;;;;;5028801;28;20045;-71
2022/08/04 07:30:48;;;;;;;18.23;5.55;;;;;;;;;;5018485;28;20096;-72
2022/08/04 07:33:18;;;;;;;16.17;5.82;;;;;;;;;;5025870;28;20107;-68
2022/08/04 07:35:46;;;;;;;16.90;5.55;;;;;;;;;;4999068;28;20067;-70
2022/08/04 07:38:12;;;;;;;14.52;5.00;;;;;;;;;;5028837;28;20038;-73
2022/08/04 07:40:38;;;;;;;17.98;5.30;;;;;;;;;;5029367;28;20057;-72
2022/08/04 07:43:05;;;;;;;17.95;6.25;;;;;;;;;;5023820;28;20056;-75
2022/08/04 07:45:31;;;;;;;15.80;5.05;;;;;;;;;;4997393;28;20049;-73
2022/08/04 07:47:57;;;;;;;17.25;5.05;;;;;;;;;;5021134;28;20136;-74
2022/08/04 07:50:24;;;;;;;17.33;4.82;;;;;;;;;;5015835;28;20137;-77
2022/08/04 07:52:50;;;;;;;17.90;5.25;;;;;;;;;;5003364;28;20049;-77
2022/08/04 07:55:17;;;;;;;18.38;5.50;;;;;;;;;;4998964;28;20484;-74
2022/08/04 07:57:43;;;;;;;17.40;5.40;;;;;;;;;;5026471;28;20052;-76
2022/08/04 08:00:10;;;;;;;16.75;5.03;;;;;;;;;;5027724;28;20418;-77
2022/08/04 08:02:42;;;;;;;16.75;5.10;;;;;;;;;;5011240;28;20049;-78
2022/08/04 08:05:10;;;;;;;13.05;4.93;;;;;;;;;;5028885;28;20059;-80
2022/08/04 08:07:36;;;;;;;18.00;5.25;;;;;;;;;;5029475;28;20358;-76
2022/08/04 08:10:02;;;;;;;15.20;5.80;;;;;;;;;;5028895;28;20079;-79
2022/08/04 08:12:29;;;;;;;14.90;5.30;;;;;;;;;;5029011;28;20053;-78
2022/08/04 08:14:55;;;;;;;18.42;7.57;;;;;;;;;;5014513;28;20477;-81
2022/08/04 08:17:21;;;;;;;18.08;6.45;;;;;;;;;;5010413;28;20115;-77
2022/08/04 08:19:48;;;;;;;18.55;7.30;;;;;;;;;;5029102;28;20053;-78
2022/08/04 08:22:14;;;;;;;19.02;7.53;;;;;;;;;;5010980;28;20465;-78
2022/08/04 08:24:40;;;;;;;18.23;7.20;;;;;;;;;;5027671;28;20125;-76
2022/08/04 08:27:06;;;;;;;17.70;7.35;;;;;;;;;;5010765;28;20156;-79
2022/08/04 08:29:33;;;;;;;21.83;7.50;;;;;;;;;;5011391;28;20049;-76
2022/08/04 08:31:59;;;;;;;15.75;7.03;;;;;;;;;;5029008;28;20428;-78
2022/08/04 08:34:27;;;;;;;16.52;7.32;;;;;;;;;;5026520;28;20049;-71
2022/08/04 08:36:56;;;;;;;19.10;8.85;;;;;;;;;;5013564;28;20084;-77
2022/08/04 08:39:25;;;;;;;19.00;7.85;;;;;;;;;;5013225;28;20481;-83
2022/08/04 08:42:10;;;;;;;19.98;8.75;;;;;;;;;;4995677;28;20532;-83
2022/08/04 08:44:42;;;;;;;20.50;9.13;;;;;;;;;;5013286;28;20133;-90
2022/08/04 08:47:08;;;;;;;20.80;8.27;;;;;;;;;;5012495;28;20038;-75
2022/08/04 08:50:02;;;;;;;18.65;8.02;;;;;;;;;;5013694;28;20092;-83
2022/08/04 08:52:46;;;;;;;16.23;7.05;;;;;;;;;;5013496;28;20062;-80
2022/08/04 08:55:31;;;;;;;15.40;7.00;;;;;;;;;;5013057;28;20057;-76
2022/08/04 08:58:00;;;;;;;19.85;7.55;;;;;;;;;;4995465;28;20073;-86
2022/08/04 09:00:33;;;;;;;19.27;7.28;;;;;;;;;;5013956;28;20106;-84
2022/08/04 09:02:59;;;;;;;20.33;8.90;;;;;;;;;;5015372;28;20481;-81
2022/08/04 09:05:34;;;;;;;18.20;7.93;;;;;;;;;;5012984;28;20516;-91
2022/08/04 09:08:13;;;;;;;15.85;7.20;;;;;;;;;;4995829;28;20129;-87
2022/08/04 09:10:58;;;;;;;17.85;8.73;;;;;;;;;;5012205;28;20062;-82
2022/08/04 09:13:33;;;;;;;18.88;8.30;;;;;;;;;;5013127;28;20053;-87
2022/08/04 09:15:59;;;;;;;15.02;7.82;;;;;;;;;;5013726;28;20054;-84
2022/08/04 09:18:37;;;;;;;16.88;7.85;;;;;;;;;;4995419;28;20050;-79
2022/08/04 09:21:09;;;;;;;18.65;8.35;;;;;;;;;;5012413;28;20053;-86
2022/08/04 09:23:40;;;;;;;18.38;9.13;;;;;;;;;;5012730;28;20251;-85
2022/08/04 09:26:21;;;;;;;19.95;7.80;;;;;;;;;;5013902;28;20092;-79
2022/08/04 09:28:47;;;;;;;17.98;9.32;;;;;;;;;;5012585;28;20212;-84
2022/08/04 09:31:16;;;;;;;19.05;8.30;;;;;;;;;;5012459;28;20050;-85
2022/08/04 09:33:47;;;;;;;17.40;8.57;;;;;;;;;;5014352;28;20074;-86
2022/08/04 09:36:22;;;;;;;18.23;6.93;;;;;;;;;;4998036;28;20358;-87
2022/08/04 09:39:08;;;;;;;17.30;7.20;;;;;;;;;;5013699;28;20129;-92
2022/08/04 09:41:41;;;;;;;18.03;7.03;;;;;;;;;;5013469;28;20050;-88
2022/08/04 09:44:13;;;;;;;16.50;7.25;;;;;;;;;;5013000;28;20169;-84
2022/08/04 09:46:42;;;;;;;15.00;5.45;;;;;;;;;;5012634;28;20049;-85
2022/08/04 09:49:17;;;;;;;19.42;6.65;;;;;;;;;;5013036;28;20054;-83
2022/08/04 09:51:52;;;;;;;31.30;6.25;;;;;;;;;;5012028;28;20068;-89
2022/08/04 09:54:29;;;;;;;13.93;5.22;;;;;;;;;;5012403;28;20046;-79
2022/08/04 09:57:14;;;;;;;12.73;5.13;;;;;;;;;;5012978;28;20166;-83
2022/08/04 09:59:43;;;;;;;15.30;4.38;;;;;;;;;;5015865;28;20092;-82
2022/08/04 10:02:11;;;;;;;19.02;5.63;;;;;;;;;;5015428;28;20062;-84
2022/08/04 10:04:38;;;;;;;16.67;4.70;;;;;;;;;;5016729;28;20093;-83
2022/08/04 10:07:23;;;;;;;11.70;4.60;;;;;;;;;;5017721;28;20046;-85
2022/08/04 10:10:08;;;;;;;12.93;4.57;;;;;;;;;;4999989;28;20462;-75
2022/08/04 10:12:53;;;;;;;12.30;3.70;;;;;;;;;;5016735;28;20065;-73
2022/08/04 10:15:19;;;;;;;13.77;4.07;;;;;;;;;;5017269;28;20088;-71
2022/08/04 10:17:55;;;;;;;13.85;3.70;;;;;;;;;;5017095;28;20046;-77
2022/08/04 10:20:27;;;;;;;12.00;3.50;;;;;;;;;;5016399;28;20112;-87
2022/08/04 10:23:01;;;;;;;11.40;3.33;;;;;;;;;;5018371;28;20092;-81
2022/08/04 10:25:27;;;;;;;12.40;3.58;;;;;;;;;;4999411;28;20133;-77
2022/08/04 10:28:08;;;;;;;13.20;3.75;;;;;;;;;;5000117;28;20053;-72
2022/08/04 10:30:36;;;;;;;11.82;3.47;;;;;;;;;;5016056;28;20132;-77
2022/08/04 10:33:05;;;;;;;13.82;3.70;;;;;;;;;;5016005;28;20057;-87
2022/08/04 10:35:38;;;;;;;10.57;2.90;;;;;;;;;;5016126;28;20415;-72
2022/08/04 10:38:28;;;;;;;16.10;3.60;;;;;;;;;;5015600;28;20084;-80
2022/08/04 10:41:20;;;;;;;14.75;3.08;;;;;;;;;;5015892;28;20052;-82
2022/08/04 10:43:55;;;;;;;13.10;3.33;;;;;;;;;;5015179;28;20057;-82
2022/08/04 10:46:29;;;;;;;13.63;3.40;;;;;;;;;;5015361;28;20137;-81
2022/08/04 10:49:01;;;;;;;14.70;4.10;;;;;;;;;;5014809;28;20478;-85
2022/08/04 10:51:42;;;;;;;15.77;3.40;;;;;;;;;;5014932;28;20136;-71
2022/08/04 10:54:11;;;;;;;19.38;4.90;;;;;;;;;;5016042;28;20417;-86
2022/08/04 10:56:40;;;;;;;14.52;4.10;;;;;;;;;;5015103;28;20184;-83
2022/08/04 10:59:10;;;;;;;13.10;4.13;;;;;;;;;;5015108;28;20054;-78
2022/08/04 11:01:40;;;;;;;14.27;3.60;;;;;;;;;;5015044;28;20084;-80
2022/08/04 11:04:09;;;;;;;13.43;3.80;;;;;;;;;;5015499;28;20053;-76
2022/08/04 11:06:37;;;;;;;14.63;3.67;;;;;;;;;;5014618;28;20046;-82
2022/08/04 11:09:04;;;;;;;14.35;3.33;;;;;;;;;;5014550;28;20054;-82
2022/08/04 11:11:32;;;;;;;10.65;3.25;;;;;;;;;;5013859;28;20046;-83
2022/08/04 11:14:01;;;;;;;12.52;2.90;;;;;;;;;;4997492;28;20042;-81
2022/08/04 11:16:31;;;;;;;9.77;2.67;;;;;;;;;;5014413;28;20096;-82
2022/08/04 11:19:15;;;;;;;12.20;3.45;;;;;;;;;;5014539;28;20050;-80
2022/08/04 11:21:47;;;;;;;14.10;3.00;;;;;;;;;;5014871;28;20049;-77
2022/08/04 11:24:36;;;;;;;12.85;3.22;;;;;;;;;;5014638;28;20046;-80
2022/08/04 11:27:09;;;;;;;10.30;2.83;;;;;;;;;;4979439;28;20485;-83
2022/08/04 11:29:49;;;;;;;8.60;2.70;;;;;;;;;;5014883;28;20046;-85
2022/08/04 11:32:20;;;;;;;10.13;2.70;;;;;;;;;;5014441;28;20481;-81
2022/08/04 11:34:48;;;;;;;12.60;2.55;;;;;;;;;;5014374;28;20050;-81
2022/08/04 11:37:20;;;;;;;10.40;2.63;;;;;;;;;;5014881;28;20405;-79
2022/08/04 11:39:52;;;;;;;8.57;2.90;;;;;;;;;;5015286;28;20073;-76
2022/08/04 11:42:23;;;;;;;7.18;2.65;;;;;;;;;;4997451;28;20050;-83
2022/08/04 11:44:51;;;;;;;8.25;2.80;;;;;;;;;;5014128;28;20058;-85
2022/08/04 11:47:24;;;;;;;10.93;2.92;;;;;;;;;;5014217;28;20100;-76
2022/08/04 11:50:16;;;;;;;8.27;2.85;;;;;;;;;;5014181;28;20552;-83
2022/08/04 11:52:43;;;;;;;9.32;2.67;;;;;;;;;;4983621;28;20053;-77
2022/08/04 11:55:11;;;;;;;6.95;2.65;;;;;;;;;;5014498;28;20054;-82
2022/08/04 11:57:37;;;;;;;7.70;2.60;;;;;;;;;;5014188;28;20077;-84
2022/08/04 12:00:09;;;;;;;9.80;2.95;;;;;;;;;;5014532;28;20041;-86
2022/08/04 12:02:50;;;;;;;7.78;2.60;;;;;;;;;;5010905;28;20391;-80
2022/08/04 12:05:19;;;;;;;10.40;2.63;;;;;;;;;;5013469;28;20061;-76
2022/08/04 12:07:59;;;;;;;8.25;2.78;;;;;;;;;;5013872;28;20548;-70
2022/08/04 12:10:28;;;;;;;8.93;2.40;;;;;;;;;;5013936;28;20501;-73
2022/08/04 12:13:01;;;;;;;6.07;2.00;;;;;;;;;;5014431;28;20365;-79
2022/08/04 12:15:38;;;;;;;9.98;2.15;;;;;;;;;;5013726;28;20096;-71
2022/08/04 12:18:07;;;;;;;7.93;2.17;;;;;;;;;;5014157;28;20049;-81
2022/08/04 12:20:37;;;;;;;5.85;2.10;;;;;;;;;;5013404;28;20132;-69
2022/08/04 12:23:04;;;;;;;8.82;2.40;;;;;;;;;;5013783;28;20046;-75
2022/08/04 12:25:32;;;;;;;7.38;2.00;;;;;;;;;;4996516;28;20077;-81
2022/08/04 12:27:59;;;;;;;9.73;2.38;;;;;;;;;;5014255;28;20046;-81
2022/08/04 12:30:29;;;;;;;8.02;1.92;;;;;;;;;;5013450;28;20180;-81
2022/08/04 12:33:00;;;;;;;6.20;2.13;;;;;;;;;;4996465;28;20046;-84
2022/08/04 12:35:34;;;;;;;8.95;2.30;;;;;;;;;;5014099;28;20046;-83
2022/08/04 12:38:08;;;;;;;7.28;2.45;;;;;;;;;;5013249;28;20081;-79
2022/08/04 12:40:40;;;;;;;11.70;2.50;;;;;;;;;;5013169;28;20418;-77
2022/08/04 12:43:25;;;;;;;5.60;2.22;;;;;;;;;;5013020;28;20042;-84
2022/08/04 12:45:56;;;;;;;5.45;1.80;;;;;;;;;;5013346;28;20049;-83
2022/08/04 12:48:23;;;;;;;10.82;2.55;;;;;;;;;;5014274;28;20058;-87
2022/08/04 12:50:50;;;;;;;7.85;2.20;;;;;;;;;;4995501;28;20375;-79
2022/08/04 12:53:18;;;;;;;6.07;2.15;;;;;;;;;;4979231;28;20050;-82
2022/08/04 12:55:47;;;;;;;7.80;2.50;;;;;;;;;;5012682;28;20125;-79
2022/08/04 12:58:27;;;;;;;6.40;2.10;;;;;;;;;;5011887;28;20150;-87
2022/08/04 13:00:59;;;;;;;9.07;2.15;;;;;;;;;;4995242;28;20041;-81
2022/08/04 13:03:30;;;;;;;10.07;2.30;;;;;;;;;;5012587;28;20049;-86
2022/08/04 13:05:56;;;;;;;8.10;2.63;;;;;;;;;;5012712;28;20181;-92
2022/08/04 13:08:23;;;;;;;10.48;2.40;;;;;;;;;;4995286;28;20042;-84
2022/08/04 13:10:50;;;;;;;5.93;2.08;;;;;;;;;;5013133;28;20568;-70
2022/08/04 13:13:18;;;;;;;7.43;2.40;;;;;;;;;;5012509;28;20089;-85
2022/08/04 13:15:54;;;;;;;6.28;2.10;;;;;;;;;;5012634;28;20050;-80
2022/08/04 13:18:21;;;;;;;6.20;1.80;;;;;;;;;;5012492;28;20049;-78
2022/08/04 13:20:47;;;;;;;7.72;1.90;;;;;;;;;;5012341;28;20049;-84
2022/08/04 13:23:17;;;;;;;7.95;1.95;;;;;;;;;;5012215;28;20046;-78
2022/08/04 13:25:45;;;;;;;7.25;2.35;;;;;;;;;;5012268;28;20049;-79
2022/08/04 13:28:15;;;;;;;7.60;2.08;;;;;;;;;;4994745;28;20086;-77
2022/08/04 13:30:45;;;;;;;7.18;2.13;;;;;;;;;;5012553;28;20104;-75
2022/08/04 13:33:11;;;;;;;7.50;2.28;;;;;;;;;;5011680;28;20046;-73
2022/08/04 13:35:43;;;;;;;7.85;2.30;;;;;;;;;;4994769;28;20042;-75
2022/08/04 13:38:11;;;;;;;9.30;2.20;;;;;;;;;;5012766;28;20046;-75
2022/08/04 13:40:39;;;;;;;7.95;2.35;;;;;;;;;;5012944;28;20068;-78
2022/08/04 13:43:05;;;;;;;7.68;1.88;;;;;;;;;;4995410;28;20413;-76
2022/08/04 13:45:32;;;;;;;6.57;1.98;;;;;;;;;;5013425;28;20042;-77
2022/08/04 13:48:00;;;;;;;6.32;2.00;;;;;;;;;;5012215;28;20128;-77
2022/08/04 13:50:31;;;;;;;8.32;2.38;;;;;;;;;;5012980;28;20049;-82
2022/08/04 13:52:58;;;;;;;6.35;2.08;;;;;;;;;;5011943;28;20089;-74
2022/08/04 13:55:26;;;;;;;7.95;2.00;;;;;;;;;;5012700;28;20056;-79
2022/08/04 13:57:55;;;;;;;8.13;2.03;;;;;;;;;;5012640;28;20046;-77
2022/08/04 14:00:22;;;;;;;7.75;2.15;;;;;;;;;;5012571;28;20046;-75
2022/08/04 14:03:00;;;;;;;9.95;2.50;;;;;;;;;;5012392;28;20046;-75
2022/08/04 14:05:27;;;;;;;7.70;2.17;;;;;;;;;;5011738;28;20378;-76
2022/08/04 14:08:05;;;;;;;8.32;2.17;;;;;;;;;;5012340;28;20470;-74
2022/08/04 14:10:31;;;;;;;9.48;2.45;;;;;;;;;;5013069;28;20046;-80
2022/08/04 14:12:57;;;;;;;8.13;2.28;;;;;;;;;;4995414;28;20046;-73
2022/08/04 14:15:31;;;;;;;20.00;3.20;;;;;;;;;;5012365;28;20045;-72
2022/08/04 14:18:32;;;;;;;13.52;2.80;;;;;;;;;;5012301;28;20081;-77
2022/08/04 14:21:10;;;;;;;17.15;3.58;;;;;;;;;;4932869;29;20043;-77
2022/08/04 14:23:39;;;;;;;13.10;3.97;;;;;;;;;;5002342;28;20061;-86
2022/08/04 14:26:22;;;;;;;13.05;4.05;;;;;;;;;;5012383;28;20108;-79
2022/08/04 14:28:48;;;;;;;16.85;4.05;;;;;;;;;;5012588;28;20072;-73
2022/08/04 14:31:15;;;;;;;19.27;3.97;;;;;;;;;;5011649;28;20129;-87
2022/08/04 14:33:42;;;;;;;13.98;4.13;;;;;;;;;;5011902;28;20050;-85
2022/08/04 14:36:09;;;;;;;16.30;3.83;;;;;;;;;;5011841;28;20445;-69
2022/08/04 14:38:45;;;;;;;15.38;3.55;;;;;;;;;;5011791;28;20038;-85
2022/08/04 14:41:12;;;;;;;12.50;3.83;;;;;;;;;;4994160;28;20555;-77
2022/08/04 14:43:58;;;;;;;14.75;4.60;;;;;;;;;;5011966;28;20129;-75
2022/08/04 14:46:24;;;;;;;15.23;5.35;;;;;;;;;;5014914;28;20430;-70
2022/08/04 14:49:05;;;;;;;12.40;5.53;;;;;;;;;;5015384;28;20038;-70
2022/08/04 14:51:34;;;;;;;15.70;5.40;;;;;;;;;;5015386;28;20064;-68
2022/08/04 14:54:00;;;;;;;14.50;5.00;;;;;;;;;;5014858;28;20053;-76
2022/08/04 14:56:27;;;;;;;11.52;4.60;;;;;;;;;;5015226;28;20090;-72
2022/08/04 14:59:00;;;;;;;13.73;4.97;;;;;;;;;;5015238;28;20041;-74
2022/08/04 15:01:27;;;;;;;12.45;4.78;;;;;;;;;;4997533;28;20414;-80
2022/08/04 15:03:55;;;;;;;11.85;4.75;;;;;;;;;;5015246;28;20042;-84